Time;durP1;ratioP1;P1;durP2;ratioP2;P2;SDS_P1;SDS_P2;PMS_P1;PMS_P2;Temp;Humidity;BMP_temperature;BMP_pressure;BME280_temperature;BME280_humidity;BME280_pressure;Samples;Min_cycle;Max_cycle;Signal;HPM_P1;HPM_P2
2023/05/01 00:00:19;;;;;;;6.55;3.03;;;14.30;95.50;;;;;;4996973;28;20034;-85
2023/05/01 00:02:45;;;;;;;6.32;2.85;;;14.20;95.60;;;;;;4996664;28;20093;-85
2023/05/01 00:05:11;;;;;;;5.50;2.90;;;14.20;95.70;;;;;;4996925;28;20078;-84
2023/05/01 00:07:36;;;;;;;6.53;3.00;;;14.20;95.80;;;;;;4981784;28;20030;-85
2023/05/01 00:10:02;;;;;;;7.50;3.20;;;14.20;96.30;;;;;;5017533;28;20504;-85
2023/05/01 00:12:28;;;;;;;6.22;3.30;;;14.20;96.20;;;;;;5001524;28;20022;-88
2023/05/01 00:14:54;;;;;;;5.38;2.97;;;14.20;96.50;;;;;;4992020;28;20026;-84
2023/05/01 00:17:21;;;;;;;6.03;2.95;;;14.10;96.50;;;;;;5006089;28;20037;-85
2023/05/01 00:19:51;;;;;;;5.75;2.95;;;14.10;96.80;;;;;;5001887;28;20033;-84
2023/05/01 00:22:17;;;;;;;5.78;3.25;;;14.10;97.00;;;;;;5018064;28;20041;-85
2023/05/01 00:24:43;;;;;;;5.75;3.05;;;14.10;97.20;;;;;;5000115;28;20037;-85
2023/05/01 00:27:08;;;;;;;7.55;3.17;;;14.10;97.20;;;;;;5000593;28;20057;-84
2023/05/01 00:29:34;;;;;;;6.05;3.13;;;14.10;97.40;;;;;;4983888;28;20029;-86
2023/05/01 00:32:00;;;;;;;7.97;3.42;;;14.10;97.50;;;;;;4983966;28;20041;-84
2023/05/01 00:34:25;;;;;;;6.03;3.13;;;14.10;97.80;;;;;;4984087;28;20120;-84
2023/05/01 00:36:51;;;;;;;6.25;2.92;;;14.00;97.90;;;;;;4999784;28;20030;-84
2023/05/01 00:39:17;;;;;;;7.35;3.58;;;14.00;98.10;;;;;;5000200;28;20048;-85
2023/05/01 00:41:42;;;;;;;7.05;2.90;;;14.00;98.20;;;;;;5015900;28;20085;-84
2023/05/01 00:44:08;;;;;;;7.60;3.30;;;14.00;98.20;;;;;;5000053;28;20129;-85
2023/05/01 00:46:34;;;;;;;5.85;3.08;;;14.00;98.30;;;;;;4999499;28;20030;-84
2023/05/01 00:49:00;;;;;;;6.05;3.10;;;14.00;98.40;;;;;;4999954;28;20112;-85
2023/05/01 00:51:28;;;;;;;6.53;3.15;;;13.90;98.50;;;;;;5000013;28;20030;-83
2023/05/01 00:53:55;;;;;;;6.15;3.33;;;13.90;98.70;;;;;;5017239;28;20107;-84
2023/05/01 00:56:21;;;;;;;8.48;3.08;;;13.90;98.70;;;;;;5016502;28;20026;-84
2023/05/01 00:58:52;;;;;;;7.13;3.03;;;13.90;98.90;;;;;;4999716;28;20053;-84
2023/05/01 01:01:22;;;;;;;;;;;13.90;99.00;;;;;;5000198;28;20022;-85
2023/05/01 01:03:50;;;;;;;6.55;2.70;;;13.90;99.10;;;;;;5017274;28;19960;-85
2023/05/01 01:06:31;;;;;;;5.35;2.60;;;13.90;99.10;;;;;;4999879;28;20029;-84
2023/05/01 01:09:26;;;;;;;6.95;3.10;;;13.90;99.20;;;;;;5004571;28;20120;-85
2023/05/01 01:12:16;;;;;;;8.25;3.33;;;13.80;99.20;;;;;;5019548;28;20057;-85
2023/05/01 01:15:08;;;;;;;9.40;2.73;;;13.80;99.40;;;;;;5012957;28;20030;-85
2023/05/01 01:18:10;;;;;;;5.00;2.70;;;13.80;99.20;;;;;;4999824;28;20331;-84
2023/05/01 01:20:47;;;;;;;8.15;3.25;;;13.80;99.10;;;;;;4999672;28;20025;-85
2023/05/01 01:23:23;;;;;;;7.00;3.03;;;13.80;99.00;;;;;;4999366;28;20038;-84
2023/05/01 01:26:06;;;;;;;11.07;3.58;;;13.80;99.30;;;;;;4999577;28;20026;-84
2023/05/01 01:28:51;;;;;;;7.70;3.05;;;13.70;99.40;;;;;;4999404;28;20022;-84
2023/05/01 01:31:35;;;;;;;6.32;3.08;;;13.70;99.40;;;;;;4999278;28;20049;-84
2023/05/01 01:34:07;;;;;;;7.60;3.22;;;13.70;99.50;;;;;;5016356;28;20030;-84
2023/05/01 01:36:45;;;;;;;7.50;3.08;;;13.70;99.40;;;;;;4999567;28;20122;-84
2023/05/01 01:39:48;;;;;;;6.43;3.10;;;13.70;99.60;;;;;;4999189;28;20018;-85
2023/05/01 01:42:19;;;;;;;9.48;3.25;;;13.60;99.50;;;;;;5017043;28;20034;-84
2023/05/01 01:44:53;;;;;;;6.45;2.95;;;13.60;99.70;;;;;;4999183;28;20085;-84
2023/05/01 01:47:20;;;;;;;7.47;3.30;;;13.60;99.60;;;;;;4999252;28;20018;-84
2023/05/01 01:49:51;;;;;;;6.97;3.25;;;13.60;99.40;;;;;;5015313;28;20026;-84
2023/05/01 01:52:17;;;;;;;8.85;3.65;;;13.60;99.50;;;;;;4998925;28;20088;-84
2023/05/01 01:54:57;;;;;;;7.30;3.20;;;13.60;99.50;;;;;;4998586;28;20030;-84
2023/05/01 01:57:24;;;;;;;8.52;3.53;;;13.60;99.60;;;;;;4998338;28;20040;-84
2023/05/01 01:59:50;;;;;;;6.57;3.35;;;13.50;99.40;;;;;;4998939;28;20194;-84
2023/05/01 02:02:19;;;;;;;9.20;3.10;;;13.50;99.60;;;;;;4998992;28;20112;-83
2023/05/01 02:04:47;;;;;;;9.38;3.50;;;13.50;99.70;;;;;;4998978;28;20058;-88
2023/05/01 02:07:15;;;;;;;9.23;3.75;;;13.50;99.90;;;;;;4999892;28;20041;-87
2023/05/01 02:09:43;;;;;;;6.68;3.70;;;13.50;99.80;;;;;;4999218;28;20475;-88
2023/05/01 02:12:13;;;;;;;6.75;3.30;;;13.50;99.90;;;;;;4999130;28;20458;-88
2023/05/01 02:14:50;;;;;;;8.30;3.92;;;13.50;99.90;;;;;;4999558;28;20018;-88
2023/05/01 02:17:17;;;;;;;6.63;2.75;;;13.50;99.90;;;;;;5001515;28;20022;-87
2023/05/01 02:19:51;;;;;;;8.52;3.78;;;13.50;99.90;;;;;;5006798;28;20030;-88
2023/05/01 02:22:25;;;;;;;6.43;3.42;;;13.50;99.90;;;;;;5010594;28;20057;-87
2023/05/01 02:24:57;;;;;;;8.27;3.10;;;13.40;99.70;;;;;;5010802;28;20026;-87
2023/05/01 02:27:45;;;;;;;9.45;3.65;;;13.40;99.60;;;;;;5014515;28;20109;-87
2023/05/01 02:30:14;;;;;;;8.48;3.20;;;13.40;99.70;;;;;;5019997;28;20026;-88
2023/05/01 02:32:42;;;;;;;6.57;3.08;;;13.40;99.40;;;;;;5021066;28;20079;-88
2023/05/01 02:35:20;;;;;;;9.32;3.75;;;13.40;99.40;;;;;;5021074;28;20029;-88
2023/05/01 02:37:46;;;;;;;8.50;3.55;;;13.40;99.50;;;;;;5018126;28;20024;-89
2023/05/01 02:40:15;;;;;;;7.93;3.33;;;13.30;99.50;;;;;;5016238;28;20030;-88
2023/05/01 02:42:45;;;;;;;12.27;3.60;;;13.30;99.60;;;;;;5015586;28;20033;-87
2023/05/01 02:45:21;;;;;;;8.63;3.58;;;13.30;99.70;;;;;;5009725;28;20022;-87
2023/05/01 02:47:59;;;;;;;8.90;3.88;;;13.30;99.90;;;;;;4999913;28;20022;-88
2023/05/01 02:50:28;;;;;;;8.10;3.25;;;13.30;99.80;;;;;;4999164;28;20490;-88
2023/05/01 02:53:00;;;;;;;8.63;3.92;;;13.30;99.90;;;;;;4998422;28;20037;-87
2023/05/01 02:55:35;;;;;;;11.27;3.30;;;13.30;99.90;;;;;;4998930;28;20022;-88
2023/05/01 02:58:09;;;;;;;11.55;3.97;;;13.30;99.90;;;;;;4998652;28;20054;-87
2023/05/01 03:00:37;;;;;;;8.18;3.47;;;13.30;99.90;;;;;;4998977;28;20140;-87
2023/05/01 03:03:07;;;;;;;7.43;3.30;;;13.30;99.90;;;;;;4981919;28;20050;-87
2023/05/01 03:05:43;;;;;;;;;;;;;;;;;;;;;
2023/05/01 03:08:14;;;;;;;5.80;3.10;;;13.20;99.90;;;;;;5015667;28;20018;-88
2023/05/01 03:11:08;;;;;;;7.88;3.40;;;13.20;99.90;;;;;;4998501;28;20033;-87
2023/05/01 03:13:34;;;;;;;7.07;3.75;;;13.20;99.90;;;;;;4997738;28;20098;-87
2023/05/01 03:16:03;;;;;;;7.72;3.85;;;13.20;99.90;;;;;;4997782;28;20060;-87
2023/05/01 03:18:33;;;;;;;6.05;3.15;;;13.20;99.90;;;;;;4998088;28;20113;-87
2023/05/01 03:20:59;;;;;;;9.20;3.95;;;13.20;99.90;;;;;;4997625;28;20470;-87
2023/05/01 03:23:26;;;;;;;10.20;3.88;;;13.10;99.90;;;;;;5015191;28;20029;-88
2023/05/01 03:25:53;;;;;;;7.60;3.65;;;13.10;99.90;;;;;;4997975;28;20032;-87
2023/05/01 03:28:22;;;;;;;6.38;3.20;;;13.10;99.90;;;;;;4998105;28;20117;-88
2023/05/01 03:30:50;;;;;;;7.97;3.70;;;13.10;99.90;;;;;;4997618;28;20022;-87
2023/05/01 03:33:25;;;;;;;8.55;3.90;;;13.10;99.90;;;;;;4997720;28;20136;-88
2023/05/01 03:36:04;;;;;;;7.47;3.30;;;13.10;99.90;;;;;;4997992;28;20358;-88
2023/05/01 03:38:30;;;;;;;9.05;3.75;;;13.10;99.90;;;;;;4998079;28;20084;-87
2023/05/01 03:40:57;;;;;;;9.63;3.50;;;13.10;99.90;;;;;;4997315;28;20026;-88
2023/05/01 03:43:26;;;;;;;8.63;3.85;;;13.00;99.90;;;;;;4996783;28;20049;-87
2023/05/01 03:45:54;;;;;;;6.25;3.28;;;13.00;99.90;;;;;;4997628;28;20030;-88
2023/05/01 03:48:25;;;;;;;8.50;3.78;;;13.00;99.90;;;;;;5015346;28;20029;-88
2023/05/01 03:50:51;;;;;;;7.35;3.90;;;13.00;99.90;;;;;;4998016;28;20044;-89
2023/05/01 03:53:20;;;;;;;6.43;3.28;;;13.00;99.90;;;;;;4998146;28;20016;-88
2023/05/01 03:55:51;;;;;;;10.30;4.35;;;13.00;99.90;;;;;;4998032;28;20033;-87
2023/05/01 03:58:16;;;;;;;7.07;3.80;;;12.90;99.90;;;;;;4997176;28;20041;-88
2023/05/01 04:00:55;;;;;;;8.80;3.60;;;12.90;99.90;;;;;;4997741;28;20026;-88
2023/05/01 04:03:28;;;;;;;8.65;3.58;;;12.90;99.90;;;;;;4994758;28;20074;-87
2023/05/01 04:05:59;;;;;;;8.93;3.53;;;12.90;99.90;;;;;;4978294;28;20030;-88
2023/05/01 04:08:27;;;;;;;9.73;3.30;;;12.90;99.90;;;;;;4994304;28;20027;-87
2023/05/01 04:10:53;;;;;;;9.02;3.75;;;12.90;99.90;;;;;;4993655;28;20466;-91
2023/05/01 04:13:21;;;;;;;9.40;4.05;;;12.90;99.90;;;;;;4994208;28;20066;-88
2023/05/01 04:15:49;;;;;;;7.68;3.47;;;12.90;99.90;;;;;;4994328;28;20054;-87
2023/05/01 04:18:23;;;;;;;8.25;3.58;;;12.90;99.90;;;;;;4978148;28;20085;-87
2023/05/01 04:20:51;;;;;;;7.63;3.53;;;12.80;99.90;;;;;;4994048;28;20027;-87
2023/05/01 04:23:17;;;;;;;7.68;3.88;;;12.80;99.90;;;;;;4994686;28;20113;-87
2023/05/01 04:25:45;;;;;;;8.75;4.22;;;12.80;99.90;;;;;;4977959;28;20096;-88
2023/05/01 04:28:23;;;;;;;8.07;3.67;;;12.90;99.90;;;;;;4993851;28;20023;-87
2023/05/01 04:30:58;;;;;;;;;;;;;;;;;;;;;
2023/05/01 04:33:27;;;;;;;7.50;3.95;;;12.80;99.90;;;;;;4995707;28;20041;-88
2023/05/01 04:35:56;;;;;;;8.73;4.15;;;12.80;99.90;;;;;;4994531;28;20033;-88
2023/05/01 04:38:25;;;;;;;8.80;3.67;;;12.80;99.90;;;;;;4994251;28;20109;-88
2023/05/01 04:40:56;;;;;;;9.27;4.63;;;12.80;99.90;;;;;;4994314;28;20014;-87
2023/05/01 04:43:24;;;;;;;6.53;3.88;;;12.80;99.90;;;;;;4978447;28;20314;-87
2023/05/01 04:45:52;;;;;;;11.38;3.90;;;12.70;99.90;;;;;;4977818;28;20050;-87
2023/05/01 04:48:21;;;;;;;8.73;4.68;;;12.80;99.90;;;;;;4977594;28;20093;-87
2023/05/01 04:50:57;;;;;;;9.88;4.07;;;12.80;99.90;;;;;;4993811;28;20082;-87
2023/05/01 04:53:23;;;;;;;9.73;3.78;;;12.80;99.90;;;;;;4978649;28;20041;-87
2023/05/01 04:55:49;;;;;;;9.35;4.13;;;12.70;99.90;;;;;;4997282;28;20026;-87
2023/05/01 04:58:15;;;;;;;6.80;3.60;;;12.70;99.90;;;;;;4997182;28;20029;-88
2023/05/01 05:00:43;;;;;;;8.85;3.65;;;12.80;99.90;;;;;;4997502;28;20031;-87
2023/05/01 05:03:08;;;;;;;10.00;4.20;;;12.70;99.90;;;;;;4999976;28;20462;-88
2023/05/01 05:05:37;;;;;;;8.90;4.22;;;12.70;99.90;;;;;;4984316;28;20057;-86
2023/05/01 05:08:08;;;;;;;10.50;4.53;;;12.70;99.90;;;;;;5000488;28;20543;-88
2023/05/01 05:10:33;;;;;;;7.53;4.25;;;12.70;99.90;;;;;;5000204;28;20033;-88
2023/05/01 05:12:59;;;;;;;9.00;4.85;;;12.70;99.90;;;;;;5000175;28;20397;-92
2023/05/01 05:15:31;;;;;;;8.50;4.32;;;12.70;99.90;;;;;;5000604;28;20046;-87
2023/05/01 05:17:59;;;;;;;8.00;3.97;;;12.70;99.90;;;;;;5000392;28;20053;-87
2023/05/01 05:20:25;;;;;;;8.95;4.45;;;12.70;99.90;;;;;;5000540;28;20033;-89
2023/05/01 05:22:54;;;;;;;10.55;5.15;;;12.80;99.90;;;;;;4983994;28;20474;-88
2023/05/01 05:25:23;;;;;;;8.98;4.40;;;12.80;99.90;;;;;;4999958;28;20040;-89
2023/05/01 05:27:58;;;;;;;8.60;4.47;;;12.80;99.90;;;;;;4999573;28;20050;-88
2023/05/01 05:30:27;;;;;;;10.30;4.55;;;12.70;99.90;;;;;;4999500;28;20520;-89
2023/05/01 05:33:01;;;;;;;8.68;4.30;;;12.70;99.90;;;;;;4999419;28;20030;-88
2023/05/01 05:35:45;;;;;;;;;;;;;;;;;;;;;
2023/05/01 05:38:22;;;;;;;9.27;4.55;;;12.80;99.90;;;;;;5016848;28;20354;-88
2023/05/01 05:40:53;;;;;;;9.93;4.40;;;12.80;99.90;;;;;;4999857;28;20069;-88
2023/05/01 05:43:23;;;;;;;14.57;4.43;;;12.70;99.90;;;;;;4999814;28;20040;-89
2023/05/01 05:45:58;;;;;;;8.63;4.47;;;12.80;99.90;;;;;;5002435;28;20363;-90
2023/05/01 05:48:31;;;;;;;6.80;4.38;;;12.80;99.90;;;;;;4999847;28;20134;-87
2023/05/01 05:50:57;;;;;;;7.95;4.30;;;12.80;99.90;;;;;;5016473;28;20033;-87
2023/05/01 05:53:28;;;;;;;13.68;5.38;;;12.80;99.90;;;;;;4999095;28;20434;-88
2023/05/01 05:55:54;;;;;;;;;;;12.80;99.90;;;;;;5000174;28;20046;-88
2023/05/01 05:58:23;;;;;;;11.15;4.85;;;12.80;99.90;;;;;;4999421;28;20312;-88
2023/05/01 06:00:51;;;;;;;9.63;5.25;;;12.80;99.90;;;;;;4999686;28;20113;-88
2023/05/01 06:03:22;;;;;;;8.70;4.43;;;12.80;99.90;;;;;;5017728;28;20022;-88
2023/05/01 06:05:55;;;;;;;11.23;4.93;;;12.80;99.90;;;;;;5001249;28;20045;-88
2023/05/01 06:08:21;;;;;;;8.60;4.47;;;12.80;99.90;;;;;;4984552;28;20026;-88
2023/05/01 06:10:47;;;;;;;10.23;5.10;;;12.80;99.90;;;;;;5018314;28;20030;-87
2023/05/01 06:13:17;;;;;;;;;;;12.80;99.90;;;;;;5039923;28;20041;-90
2023/05/01 06:15:44;;;;;;;11.68;5.22;;;12.80;99.90;;;;;;5022436;28;19898;-87
2023/05/01 06:18:29;;;;;;;7.90;4.70;;;12.80;99.90;;;;;;5038243;28;20034;-92
2023/05/01 06:21:37;;;;;;;9.65;4.70;;;12.80;99.90;;;;;;5020550;28;20014;-88
2023/05/01 06:24:29;;;;;;;9.93;5.35;;;12.90;99.90;;;;;;5016725;28;20042;-89
2023/05/01 06:33:41;;;;;;;12.32;4.88;;;12.80;99.90;;;;;;5014675;28;20033;-87
2023/05/01 06:36:09;;;;;;;10.52;4.47;;;12.80;99.90;;;;;;4999382;28;20022;-88
2023/05/01 06:38:40;;;;;;;10.27;4.80;;;12.90;99.90;;;;;;4999216;28;20026;-88
2023/05/01 06:41:13;;;;;;;9.55;5.15;;;12.80;99.90;;;;;;4998587;28;20029;-89
2023/05/01 06:43:57;;;;;;;;;;;;;;;;;;;;;
2023/05/01 06:49:33;;;;;;;;;;;;;;;;;;;;;
2023/05/01 06:52:03;;;;;;;10.00;5.32;;;12.90;99.90;;;;;;5016744;28;20041;-88
2023/05/01 06:54:28;;;;;;;12.07;5.30;;;12.90;99.90;;;;;;4999170;28;20049;-88
2023/05/01 06:57:18;;;;;;;;;;;;;;;;;;;;;
2023/05/01 07:00:16;;;;;;;;;;;;;;;;;;;;;
2023/05/01 07:03:05;;;;;;;9.60;5.45;;;12.90;99.90;;;;;;5012149;28;20050;-89
2023/05/01 07:05:45;;;;;;;12.00;5.35;;;12.90;99.90;;;;;;4985340;28;20053;-88
2023/05/01 07:08:31;;;;;;;;;;;;;;;;;;;;;
2023/05/01 07:11:10;;;;;;;8.50;5.15;;;12.90;99.90;;;;;;5015733;28;20090;-89
2023/05/01 07:16:52;;;;;;;9.98;5.07;;;13.00;99.90;;;;;;5013213;28;20389;-89
2023/05/01 07:19:32;;;;;;;11.25;4.95;;;13.00;99.90;;;;;;4998134;28;20082;-89
2023/05/01 07:22:03;;;;;;;11.15;5.53;;;13.00;99.90;;;;;;5000061;28;20088;-89
2023/05/01 07:25:36;;;;;;;9.80;5.00;;;13.00;99.90;;;;;;4999352;28;20406;-91
2023/05/01 07:27:51;;;;;;;12.23;6.15;;;13.00;99.90;;;;;;5004670;28;20037;-90
2023/05/01 07:34:37;;;;;;;10.75;6.07;;;13.00;99.90;;;;;;4932500;29;20032;-90
2023/05/01 07:41:24;;;;;;;10.75;5.55;;;13.10;99.90;;;;;;4854456;29;20037;-91
2023/05/01 07:47:51;;;;;;;8.60;5.88;;;13.20;99.90;;;;;;4943873;28;20035;-88
2023/05/01 07:51:13;;;;;;;;;;;;;;;;;;;;;
2023/05/01 07:54:10;;;;;;;12.40;5.68;;;13.30;99.90;;;;;;4975250;28;20029;-88
2023/05/01 07:57:01;;;;;;;;;;;;;;;;;;;;;
2023/05/01 07:59:59;;;;;;;;;;;;;;;;;;;;;
2023/05/01 08:02:57;;;;;;;10.10;5.30;;;13.40;99.90;;;;;;5015449;28;20040;-89
2023/05/01 08:05:51;;;;;;;11.10;5.85;;;13.50;99.90;;;;;;4998127;28;20085;-88
2023/05/01 08:08:46;;;;;;;;;;;;;;;;;;;;;
2023/05/01 08:12:00;;;;;;;10.23;5.35;;;13.60;99.90;;;;;;5017144;28;20453;-89
2023/05/01 08:15:09;;;;;;;;;;;;;;;;;;;;;
2023/05/01 08:17:52;;;;;;;9.93;5.30;;;13.70;99.90;;;;;;5015606;28;20034;-88
2023/05/01 08:23:19;;;;;;;9.65;5.50;;;13.80;99.90;;;;;;4998387;28;20389;-86
2023/05/01 08:25:53;;;;;;;9.30;5.40;;;13.80;99.90;;;;;;4998420;28;20092;-86
2023/05/01 08:28:38;;;;;;;8.50;5.30;;;13.90;99.90;;;;;;4998551;28;20030;-88
2023/05/01 08:31:25;;;;;;;9.73;5.80;;;13.90;99.90;;;;;;5000293;28;20037;-87
2023/05/01 08:34:21;;;;;;;;;;;;;;;;;;;;;
2023/05/01 08:37:11;;;;;;;10.20;5.43;;;14.00;99.90;;;;;;5017647;28;20427;-87
2023/05/01 08:40:10;;;;;;;;;;;;;;;;;;;;;
2023/05/01 08:42:37;;;;;;;10.30;5.50;;;14.10;99.90;;;;;;5002188;28;20029;-87
2023/05/01 08:45:26;;;;;;;11.85;5.30;;;14.10;99.90;;;;;;5001181;28;20056;-88
2023/05/01 08:48:21;;;;;;;;;;;;;;;;;;;;;
2023/05/01 08:51:21;;;;;;;15.05;5.35;;;14.20;99.90;;;;;;5018521;28;20107;-88
2023/05/01 08:53:54;;;;;;;14.95;5.40;;;14.30;99.90;;;;;;4999009;28;20030;-87
2023/05/01 08:56:32;;;;;;;10.93;5.10;;;14.30;99.90;;;;;;4999662;28;20050;-87
2023/05/01 08:59:12;;;;;;;8.85;4.70;;;14.40;99.90;;;;;;5000251;28;20484;-87
2023/05/01 09:01:42;;;;;;;6.88;4.75;;;14.50;99.90;;;;;;5000652;28;20462;-87
2023/05/01 09:04:21;;;;;;;9.65;5.63;;;14.60;99.90;;;;;;5017854;28;20052;-88
2023/05/01 09:06:49;;;;;;;8.43;5.40;;;14.70;99.90;;;;;;5000291;28;20025;-87
2023/05/01 09:09:15;;;;;;;12.23;6.13;;;14.70;99.90;;;;;;5017521;28;20105;-87
2023/05/01 09:11:46;;;;;;;11.10;5.80;;;14.80;99.90;;;;;;5000098;28;20439;-88
2023/05/01 09:14:12;;;;;;;12.20;5.13;;;14.90;99.90;;;;;;4999628;28;20508;-87
2023/05/01 09:16:40;;;;;;;10.55;5.43;;;15.00;99.90;;;;;;5000068;28;20018;-87
2023/05/01 09:19:06;;;;;;;13.45;5.03;;;15.10;99.90;;;;;;5000089;28;20065;-87
2023/05/01 09:21:44;;;;;;;10.00;5.47;;;15.20;99.90;;;;;;4999712;28;20026;-88
2023/05/01 09:24:20;;;;;;;;;;;;;;;;;;;;;
2023/05/01 09:26:52;;;;;;;7.05;4.60;;;15.50;99.90;;;;;;5017222;28;20021;-86
2023/05/01 09:29:37;;;;;;;15.48;5.78;;;15.50;99.90;;;;;;4999528;28;20097;-88
2023/05/01 09:32:29;;;;;;;8.93;4.80;;;15.60;99.90;;;;;;4999169;28;20537;-86
2023/05/01 09:35:26;;;;;;;7.68;4.10;;;15.70;99.90;;;;;;5014610;28;20044;-85
2023/05/01 09:38:35;;;;;;;7.88;4.25;;;15.70;99.90;;;;;;4999204;28;20030;-86
2023/05/01 09:41:32;;;;;;;;;;;;;;;;;;;;;
2023/05/01 09:44:07;;;;;;;8.23;4.40;;;16.00;99.90;;;;;;5016832;28;20034;-86
2023/05/01 09:46:49;;;;;;;6.55;4.00;;;16.00;99.90;;;;;;4999194;28;20425;-86
2023/05/01 09:49:17;;;;;;;7.43;4.40;;;16.00;99.90;;;;;;4999009;28;20022;-87
2023/05/01 09:51:53;;;;;;;7.15;4.82;;;16.10;99.90;;;;;;5007194;28;20092;-86
2023/05/01 09:54:28;;;;;;;10.63;4.50;;;16.20;99.90;;;;;;5010562;28;20630;-88
2023/05/01 09:57:28;;;;;;;;;;;;;;;;;;;;;
2023/05/01 10:00:26;;;;;;;6.15;4.03;;;16.40;99.90;;;;;;5028939;28;20057;-85
2023/05/01 10:02:52;;;;;;;7.15;4.28;;;16.50;99.20;;;;;;5003520;28;20106;-85
2023/05/01 10:05:22;;;;;;;8.98;4.50;;;16.60;99.20;;;;;;4996233;28;20050;-86
2023/05/01 10:08:09;;;;;;;;;;;;;;;;;;;;;
2023/05/01 10:10:45;;;;;;;;;;;;;;;;;;;;;
2023/05/01 10:13:22;;;;;;;9.23;4.32;;;16.80;99.10;;;;;;4996558;28;20024;-85
2023/05/01 10:15:56;;;;;;;9.73;3.95;;;16.90;99.40;;;;;;4979358;28;20054;-85
2023/05/01 10:18:22;;;;;;;9.20;4.43;;;17.10;99.90;;;;;;4978892;28;20030;-85
2023/05/01 10:20:50;;;;;;;6.43;4.05;;;17.20;99.90;;;;;;4979649;28;20026;-85
2023/05/01 10:23:16;;;;;;;9.48;3.92;;;17.30;99.90;;;;;;4978765;28;20038;-84
2023/05/01 10:25:47;;;;;;;5.80;3.53;;;17.40;99.90;;;;;;4981591;28;20110;-85
2023/05/01 10:28:23;;;;;;;7.75;3.60;;;17.40;99.90;;;;;;4978418;28;20018;-85
2023/05/01 10:30:49;;;;;;;6.07;3.42;;;17.50;99.70;;;;;;4977755;28;20027;-85
2023/05/01 10:33:16;;;;;;;7.50;3.55;;;17.60;99.70;;;;;;4977764;28;20026;-85
2023/05/01 10:35:48;;;;;;;6.50;3.40;;;17.70;99.90;;;;;;4978458;28;20373;-85
2023/05/01 10:38:26;;;;;;;6.35;3.80;;;17.80;99.60;;;;;;4978153;28;20431;-85
2023/05/01 10:40:57;;;;;;;6.20;3.55;;;17.90;99.30;;;;;;4978071;28;20026;-85
2023/05/01 10:43:29;;;;;;;;;;;18.00;99.80;;;;;;4978004;28;20500;-85
2023/05/01 10:46:08;;;;;;;7.82;3.38;;;18.10;98.60;;;;;;4994975;28;19910;-84
2023/05/01 10:48:38;;;;;;;5.78;2.97;;;18.20;98.50;;;;;;4977237;28;20126;-86
2023/05/01 10:51:12;;;;;;;;;;;18.30;98.80;;;;;;4977433;28;20026;-85
2023/05/01 10:53:40;;;;;;;7.88;3.83;;;18.40;97.90;;;;;;4977376;28;19906;-84
2023/05/01 10:56:32;;;;;;;9.02;3.92;;;18.40;98.20;;;;;;4977166;28;20029;-84
2023/05/01 10:59:11;;;;;;;6.15;3.17;;;18.50;97.90;;;;;;4977033;28;20485;-86
2023/05/01 11:01:38;;;;;;;9.27;3.13;;;18.50;97.70;;;;;;4977200;28;20018;-85
2023/05/01 11:04:30;;;;;;;12.00;2.92;;;18.60;97.10;;;;;;4983330;28;20053;-85
2023/05/01 11:07:07;;;;;;;6.80;2.80;;;18.70;96.40;;;;;;4997028;28;20112;-85
2023/05/01 11:09:46;;;;;;;5.10;2.75;;;18.70;95.60;;;;;;4996854;28;20033;-86
2023/05/01 11:12:23;;;;;;;7.10;3.03;;;18.70;95.40;;;;;;4996691;28;20026;-86
2023/05/01 11:15:12;;;;;;;5.63;2.53;;;18.80;94.90;;;;;;4996707;28;20033;-86
2023/05/01 11:17:47;;;;;;;6.38;2.90;;;18.90;95.50;;;;;;5015117;28;20030;-86
2023/05/01 11:20:34;;;;;;;7.90;2.90;;;19.00;95.30;;;;;;4996636;28;20129;-86
2023/05/01 11:23:12;;;;;;;9.68;3.78;;;19.10;94.90;;;;;;5013214;28;20034;-87
2023/05/01 11:25:41;;;;;;;9.60;3.95;;;19.20;94.40;;;;;;4996907;28;20085;-87
2023/05/01 11:28:21;;;;;;;6.30;3.35;;;19.30;94.60;;;;;;4997067;28;20036;-86
2023/05/01 11:31:02;;;;;;;;;;;;;;;;;;;;;
2023/05/01 11:36:57;;;;;;;8.32;3.70;;;19.60;94.50;;;;;;5015869;28;19906;-89
2023/05/01 11:39:25;;;;;;;9.10;3.75;;;19.60;94.20;;;;;;4998477;28;20040;-90
2023/05/01 11:42:20;;;;;;;;;;;;;;;;;;;;;
2023/05/01 11:45:09;;;;;;;9.40;3.90;;;19.80;93.50;;;;;;4998112;28;20466;-83
2023/05/01 11:47:36;;;;;;;6.90;3.65;;;19.80;92.70;;;;;;5013561;28;20465;-82
2023/05/01 11:50:14;;;;;;;7.43;3.28;;;19.90;93.00;;;;;;4996384;28;20037;-90
2023/05/01 11:52:48;;;;;;;8.40;3.70;;;20.00;93.50;;;;;;4981577;28;20089;-89
2023/05/01 11:55:37;;;;;;;6.32;3.30;;;20.10;92.40;;;;;;4996815;28;20089;-88
2023/05/01 11:58:20;;;;;;;9.10;4.80;;;20.10;92.70;;;;;;4996177;28;20466;-88
2023/05/01 12:00:52;;;;;;;9.40;4.30;;;20.20;92.20;;;;;;4996994;28;20432;-84
2023/05/01 12:03:28;;;;;;;6.25;3.45;;;20.30;92.30;;;;;;4996340;28;20026;-85
2023/05/01 12:06:13;;;;;;;7.93;4.10;;;20.30;91.70;;;;;;4999005;28;20057;-85
2023/05/01 12:08:51;;;;;;;8.80;3.92;;;20.30;91.00;;;;;;5000013;28;20504;-85
2023/05/01 12:11:23;;;;;;;11.35;4.03;;;20.40;91.80;;;;;;5000156;28;20072;-85
2023/05/01 12:13:54;;;;;;;7.88;4.85;;;20.50;91.30;;;;;;5000235;28;20037;-84
2023/05/01 12:16:19;;;;;;;8.02;4.38;;;20.50;90.30;;;;;;5017622;28;20021;-83
2023/05/01 12:18:51;;;;;;;5.68;3.22;;;20.50;90.20;;;;;;5000402;28;20121;-87
2023/05/01 12:21:24;;;;;;;8.90;3.25;;;20.50;88.70;;;;;;5000805;28;20478;-87
2023/05/01 12:23:58;;;;;;;7.10;3.75;;;20.50;86.60;;;;;;5000676;28;20034;-88
2023/05/01 12:26:30;;;;;;;7.40;2.88;;;20.50;86.20;;;;;;5000296;28;20026;-89
2023/05/01 12:29:03;;;;;;;8.07;2.88;;;20.50;87.30;;;;;;4999922;28;20046;-87
2023/05/01 12:31:47;;;;;;;5.47;2.45;;;20.60;89.20;;;;;;5001557;28;20053;-89
2023/05/01 12:34:47;;;;;;;;;;;;;;;;;;;;;
2023/05/01 12:37:37;;;;;;;;;;;;;;;;;;;;;
2023/05/01 12:40:13;;;;;;;5.10;2.13;;;20.90;87.80;;;;;;5003803;28;20373;-88
2023/05/01 12:42:59;;;;;;;5.38;1.48;;;21.00;87.70;;;;;;5001461;28;20077;-88
2023/05/01 12:45:43;;;;;;;4.68;1.77;;;21.10;87.40;;;;;;5001653;28;20061;-88
2023/05/01 12:48:24;;;;;;;4.10;1.98;;;21.20;87.70;;;;;;5001139;28;20030;-88
2023/05/01 12:53:49;;;;;;;5.97;2.00;;;21.40;84.50;;;;;;5018438;28;20004;-88
2023/05/01 12:56:43;;;;;;;3.17;1.70;;;21.40;83.60;;;;;;5000694;28;20501;-88
2023/05/01 12:59:23;;;;;;;5.22;1.83;;;21.50;82.40;;;;;;4998509;28;20033;-88
2023/05/01 13:05:21;;;;;;;3.22;1.83;;;21.80;82.20;;;;;;4987112;28;20303;-88
2023/05/01 13:08:21;;;;;;;;;;;;;;;;;;;;;
2023/05/01 13:10:50;;;;;;;6.18;2.30;;;22.00;81.10;;;;;;5017770;28;20026;-89
2023/05/01 13:13:56;;;;;;;;;;;;;;;;;;;;;
2023/05/01 13:16:35;;;;;;;;;;;;;;;;;;;;;
2023/05/01 13:19:05;;;;;;;5.47;2.42;;;22.10;79.00;;;;;;5016828;28;20018;-88
2023/05/01 13:21:43;;;;;;;;;;;;;;;;;;;;;
2023/05/01 13:24:20;;;;;;;5.35;2.60;;;22.20;78.40;;;;;;5016781;28;20044;-89
2023/05/01 13:27:06;;;;;;;6.00;3.00;;;22.30;77.50;;;;;;5000074;28;20036;-88
2023/05/01 13:29:54;;;;;;;6.97;2.60;;;22.40;76.90;;;;;;5018395;28;20022;-88
2023/05/01 13:32:30;;;;;;;4.90;2.00;;;22.40;76.40;;;;;;5002513;28;20068;-88
2023/05/01 13:35:22;;;;;;;4.65;1.80;;;22.50;75.50;;;;;;5019159;28;20025;-90
2023/05/01 13:38:27;;;;;;;3.42;1.70;;;22.50;76.00;;;;;;5022273;28;20006;-87
2023/05/01 13:41:18;;;;;;;;;;;;;;;;;;;;;
2023/05/01 13:44:00;;;;;;;2.63;1.40;;;22.60;73.30;;;;;;5033431;28;20077;-88
2023/05/01 13:46:38;;;;;;;;;;;;;;;;;;;;;
2023/05/01 13:55:33;;;;;;;4.90;2.00;;;22.90;72.90;;;;;;5009504;28;20363;-88
2023/05/01 13:58:03;;;;;;;;;;;23.00;72.30;;;;;;4999725;28;20030;-88
2023/05/01 14:04:36;;;;;;;7.72;3.60;;;23.00;72.10;;;;;;5016574;28;20042;-92
2023/05/01 14:07:49;;;;;;;8.40;3.90;;;22.90;71.10;;;;;;5016936;28;20046;-89
2023/05/01 14:10:14;;;;;;;8.73;3.40;;;22.80;72.70;;;;;;5007120;28;20046;-84
2023/05/01 14:12:40;;;;;;;9.55;3.60;;;22.60;72.50;;;;;;4997746;28;20324;-83
2023/05/01 14:15:14;;;;;;;7.03;3.28;;;22.50;73.20;;;;;;4998365;28;20533;-88
2023/05/01 14:17:54;;;;;;;8.00;3.63;;;22.40;73.60;;;;;;5003241;28;20072;-95
2023/05/01 14:20:59;;;;;;;;;;;;;;;;;;;;;
2023/05/01 14:26:06;;;;;;;7.72;3.92;;;22.00;74.10;;;;;;5018433;23;20064;-95
2023/05/01 14:28:41;;;;;;;5.93;3.08;;;21.90;74.50;;;;;;5016055;28;20033;-95
2023/05/01 14:38:20;;;;;;;5.53;2.65;;;21.70;74.40;;;;;;4976251;28;20083;-96
2023/05/01 14:41:22;;;;;;;6.82;3.00;;;21.60;73.70;;;;;;4951522;29;20047;-90
2023/05/01 14:50:40;;;;;;;;;;;;;;;;;;;;;
2023/05/01 15:07:25;;;;;;;5.95;3.33;;;21.20;76.00;;;;;;4919278;28;20023;-96
2023/05/01 15:13:32;;;;;;;7.55;4.55;;;21.10;76.70;;;;;;4956333;29;20503;-95
2023/05/01 15:15:58;;;;;;;8.23;3.35;;;21.00;78.00;;;;;;4926455;29;20054;-95
2023/05/01 15:18:24;;;;;;;8.70;4.22;;;21.00;78.80;;;;;;4948966;29;20164;-94
2023/05/01 15:21:08;;;;;;;11.05;3.88;;;21.00;79.10;;;;;;4991239;28;20073;-94
2023/05/01 15:23:43;;;;;;;;;;;;;;;;;;;;;
2023/05/01 15:29:53;;;;;;;7.88;3.78;;;20.90;79.20;;;;;;4956195;29;20058;-88
2023/05/01 15:32:26;;;;;;;7.30;3.97;;;20.80;78.90;;;;;;4939753;29;20035;-88
2023/05/01 15:35:25;;;;;;;;;;;;;;;;;;;;;
2023/05/01 15:38:26;;;;;;;;;;;;;;;;;;;;;
2023/05/01 15:44:24;;;;;;;6.30;3.83;;;20.80;80.60;;;;;;4920211;29;20042;-87
2023/05/01 15:53:19;;;;;;;;;;;;;;;;;;;;;